createdAt,value
2023-04-22T00:04:15.145Z,17.86
2023-04-22T00:09:18.816Z,17.86
2023-04-22T00:14:23.581Z,17.84
2023-04-22T00:19:26.950Z,17.83
2023-04-22T00:24:30.389Z,17.82
2023-04-22T00:29:35.185Z,17.83
2023-04-22T00:34:38.614Z,17.81
2023-04-22T00:39:42.454Z,17.80
2023-04-22T00:44:48.487Z,17.79
2023-04-22T00:49:51.959Z,17.80
2023-04-22T00:54:55.362Z,17.81
2023-04-22T01:00:00.710Z,17.77
2023-04-22T01:05:04.644Z,17.78
2023-04-22T01:10:09.198Z,17.79
2023-04-22T01:15:14.306Z,17.77
2023-04-22T01:20:17.680Z,17.77
2023-04-22T01:25:22.786Z,17.77
2023-04-22T01:30:26.155Z,17.80
2023-04-22T01:35:30.618Z,17.78
2023-04-22T01:40:35.536Z,17.79
2023-04-22T01:45:38.965Z,17.76
2023-04-22T01:50:42.456Z,17.76
2023-04-22T01:55:47.966Z,17.74
2023-04-22T02:00:51.368Z,17.74
2023-04-22T02:05:54.755Z,17.73
2023-04-22T02:11:00.910Z,17.74
2023-04-22T02:16:04.339Z,17.74
2023-04-22T02:21:07.827Z,17.73
2023-04-22T02:26:12.639Z,17.74
2023-04-22T02:31:16.045Z,17.74
2023-04-22T02:36:19.439Z,17.72
2023-04-22T02:41:24.255Z,17.75
2023-04-22T02:46:27.706Z,17.72
2023-04-22T02:51:31.201Z,17.74
2023-04-22T02:56:36.365Z,17.72
2023-04-22T03:01:39.749Z,17.70
2023-04-22T03:06:43.310Z,17.75
2023-04-22T03:11:48.066Z,17.71
2023-04-22T03:16:51.597Z,17.67
2023-04-22T03:21:56.623Z,17.68
2023-04-22T03:27:02.301Z,17.68
2023-04-22T03:32:05.702Z,17.73
2023-04-22T03:37:10.461Z,17.69
2023-04-22T03:42:15.775Z,17.67
2023-04-22T03:47:19.124Z,17.63
2023-04-22T03:52:22.922Z,17.67
2023-04-22T03:57:27.664Z,17.65
2023-04-22T04:02:31.237Z,17.59
2023-04-22T04:07:34.709Z,17.61
2023-04-22T04:12:39.455Z,17.58
2023-04-22T04:17:42.845Z,17.59
2023-04-22T04:22:46.515Z,17.59
2023-04-22T04:27:52.005Z,17.55
2023-04-22T04:32:55.388Z,17.59
2023-04-22T04:37:59.421Z,17.57
2023-04-22T04:43:08.425Z,17.59
2023-04-22T04:48:12.903Z,17.56
2023-04-22T04:53:16.269Z,17.54
2023-04-22T04:58:21.034Z,17.57
2023-04-22T05:03:24.633Z,17.59
2023-04-22T05:08:28.145Z,17.57
2023-04-22T05:13:33.252Z,17.50
2023-04-22T05:18:36.626Z,17.51
2023-04-22T05:23:39.976Z,17.49
2023-04-22T05:28:45.971Z,17.46
2023-04-22T05:33:49.373Z,17.51
2023-04-22T05:38:52.755Z,17.46
2023-04-22T05:43:57.644Z,17.45
2023-04-22T05:49:01.038Z,17.51
2023-04-22T05:54:04.475Z,17.45
2023-04-22T05:59:09.437Z,17.45
2023-04-22T06:04:13.163Z,17.45
2023-04-22T06:09:16.742Z,17.43
2023-04-22T06:14:21.523Z,17.46
2023-04-22T06:19:25.099Z,17.49
2023-04-22T06:24:28.502Z,17.45
2023-04-22T06:29:33.347Z,17.46
2023-04-22T06:34:38.729Z,17.45
2023-04-22T06:39:42.328Z,17.46
2023-04-22T06:44:47.323Z,17.42
2023-04-22T06:49:50.681Z,17.41
2023-04-22T06:54:54.048Z,17.48
2023-04-22T06:59:58.878Z,17.45
2023-04-22T07:05:02.262Z,17.40
2023-04-22T07:10:06.336Z,17.41
2023-04-22T07:15:11.789Z,17.40
2023-04-22T07:20:15.175Z,17.40
2023-04-22T07:25:18.649Z,17.46
2023-04-22T07:30:23.715Z,17.59
2023-04-22T07:35:28.700Z,17.56
2023-04-22T07:40:32.048Z,17.55
2023-04-22T07:45:36.882Z,17.52
2023-04-22T07:50:40.515Z,17.58
2023-04-22T07:55:43.865Z,17.69
2023-04-22T08:00:48.775Z,17.76
2023-04-22T08:05:52.219Z,17.61
2023-04-22T08:10:55.635Z,17.73
2023-04-22T08:16:02.810Z,17.92
2023-04-22T08:21:06.370Z,17.81
2023-04-22T08:26:11.972Z,17.81
2023-04-22T08:31:16.753Z,17.78
2023-04-22T08:36:22.899Z,17.77
2023-04-22T08:41:26.341Z,17.75
2023-04-22T08:46:32.309Z,17.75
2023-04-22T08:51:35.729Z,17.79
2023-04-22T08:56:41.353Z,17.84
2023-04-22T09:01:47.136Z,17.96
2023-04-22T09:06:50.581Z,17.90
2023-04-22T09:11:53.942Z,17.88
2023-04-22T09:16:59.601Z,17.90
2023-04-22T09:22:03.226Z,17.91
2023-04-22T09:27:06.602Z,18.04
2023-04-22T09:32:14.593Z,17.89
2023-04-22T09:37:20.812Z,17.78
2023-04-22T09:42:24.166Z,17.90
2023-04-22T09:47:36.878Z,17.68
2023-04-22T09:52:40.475Z,17.89
2023-04-22T09:57:44.775Z,17.81
2023-04-22T10:02:49.628Z,17.83
2023-04-22T10:07:53.153Z,17.81
2023-04-22T10:12:56.826Z,17.78
2023-04-22T10:18:02.479Z,17.73
2023-04-22T10:23:06.390Z,17.77
2023-04-22T10:28:11.262Z,17.80
2023-04-22T10:33:40.900Z,17.86
2023-04-22T10:39:16.758Z,17.91
2023-04-22T10:44:22.491Z,17.85
2023-04-22T10:49:27.270Z,17.82
2023-04-22T10:55:01.682Z,17.80
2023-04-22T11:00:41.703Z,17.79
2023-04-22T11:05:49.656Z,17.84
2023-04-22T11:10:55.328Z,17.79
2023-04-22T11:16:00.215Z,17.85
2023-04-22T11:21:06.511Z,17.78
2023-04-22T11:26:09.895Z,17.82
2023-04-22T11:31:15.281Z,17.80
2023-04-22T11:36:19.535Z,17.79
2023-04-22T11:41:23.772Z,17.80
2023-04-22T11:46:38.587Z,17.88
2023-04-22T11:51:54.410Z,17.91
2023-04-22T11:56:57.866Z,17.86
2023-04-22T12:02:06.402Z,17.91
2023-04-22T12:07:09.922Z,17.94
2023-04-22T12:12:13.861Z,18.33
2023-04-22T12:17:24.274Z,18.34
2023-04-22T12:22:28.128Z,18.34
2023-04-22T12:27:32.237Z,18.30
2023-04-22T12:32:37.072Z,18.39
2023-04-22T12:37:40.767Z,18.31
2023-04-22T12:42:44.132Z,18.44
2023-04-22T12:47:49.782Z,18.57
2023-04-22T12:52:53.187Z,18.44
2023-04-22T12:57:56.907Z,18.49
2023-04-22T13:03:01.961Z,18.65
2023-04-22T13:08:07.829Z,18.55
2023-04-22T13:18:21.187Z,18.42
2023-04-22T13:23:26.094Z,18.41
2023-04-22T13:28:29.657Z,18.40
2023-04-22T13:33:34.590Z,18.46
2023-04-22T13:38:38.097Z,18.38
2023-04-22T13:43:41.769Z,18.33
2023-04-22T13:48:49.720Z,18.43
2023-04-22T13:53:53.124Z,18.39
2023-04-22T13:58:58.140Z,18.36
2023-04-22T14:04:03.097Z,18.36
2023-04-22T14:09:07.130Z,18.33
2023-04-22T14:14:10.571Z,18.35
2023-04-22T14:19:17.844Z,18.33
2023-04-22T14:24:21.335Z,18.31
2023-04-22T14:29:24.722Z,18.29
2023-04-22T14:34:29.522Z,18.30
2023-04-22T14:39:32.901Z,18.29
2023-04-22T14:44:36.510Z,18.25
2023-04-22T14:49:41.499Z,18.33
2023-04-22T14:54:45.173Z,18.31
2023-04-22T14:59:48.590Z,18.32
2023-04-22T15:04:53.440Z,18.32
2023-04-22T15:09:58.682Z,18.29
2023-04-22T15:15:02.284Z,18.35
2023-04-22T15:20:09.357Z,18.32
2023-04-22T15:25:13.054Z,18.26
2023-04-22T15:30:16.771Z,18.26
2023-04-22T15:35:22.953Z,18.27
2023-04-22T15:40:26.496Z,18.31
2023-04-22T15:45:30.181Z,18.31
2023-04-22T15:50:35.068Z,18.32
2023-04-22T15:55:38.449Z,18.24
2023-04-22T16:00:42.473Z,18.29
2023-04-22T16:05:47.313Z,18.31
2023-04-22T16:10:50.666Z,18.24
2023-04-22T16:15:54.021Z,18.23
2023-04-22T16:21:00.475Z,18.21
2023-04-22T16:26:04.672Z,18.18
2023-04-22T16:31:08.937Z,18.21
2023-04-22T16:36:14.089Z,18.19
2023-04-22T16:41:17.442Z,18.20
2023-04-22T16:46:20.852Z,18.25
2023-04-22T16:51:25.651Z,18.22
2023-04-22T16:56:30.060Z,18.19
2023-04-22T17:01:33.506Z,18.18
2023-04-22T17:06:39.959Z,18.20
2023-04-22T17:11:43.605Z,18.16
2023-04-22T17:16:47.028Z,18.16
2023-04-22T17:21:51.961Z,18.15
2023-04-22T17:26:55.418Z,18.20
2023-04-22T17:31:58.871Z,18.15
2023-04-22T17:37:03.676Z,18.18
2023-04-22T17:42:07.533Z,18.12
2023-04-22T17:47:10.974Z,18.14
2023-04-22T17:52:16.028Z,18.13
2023-04-22T17:57:19.418Z,18.12
2023-04-22T18:02:23.628Z,18.14
2023-04-22T18:07:28.927Z,18.09
2023-04-22T18:12:40.403Z,18.09
2023-04-22T18:17:43.762Z,18.11
2023-04-22T18:22:49.867Z,18.11
2023-04-22T18:27:55.207Z,18.09
2023-04-22T18:32:58.687Z,18.10
2023-04-22T18:38:03.522Z,18.10
2023-04-22T18:43:09.533Z,18.08
2023-04-22T18:48:12.936Z,18.06
2023-04-22T18:53:18.286Z,18.04
2023-04-22T18:58:23.374Z,18.02
2023-04-22T19:03:27.159Z,18.02
2023-04-22T19:08:32.043Z,17.99
2023-04-22T19:13:35.515Z,17.98
2023-04-22T19:18:39.228Z,17.97
2023-04-22T19:23:44.022Z,17.96
2023-04-22T19:28:48.988Z,17.96
2023-04-22T19:33:52.385Z,17.93
2023-04-22T19:38:57.169Z,17.94
2023-04-22T19:44:00.609Z,17.94
2023-04-22T19:49:04.441Z,17.91
2023-04-22T19:54:11.990Z,17.92
2023-04-22T19:59:16.363Z,17.90
2023-04-22T20:04:20.393Z,17.88
2023-04-22T20:09:25.272Z,17.85
2023-04-22T20:14:29.259Z,17.93
2023-04-22T20:19:33.196Z,17.91
2023-04-22T20:24:40.575Z,17.93
2023-04-22T20:29:45.046Z,17.92
2023-04-22T20:34:49.093Z,17.93
2023-04-22T20:39:54.661Z,17.94
2023-04-22T20:44:58.102Z,17.89
2023-04-22T20:50:01.701Z,17.87
2023-04-22T20:55:07.245Z,17.92
2023-04-22T21:00:11.790Z,17.91
2023-04-22T21:05:16.198Z,17.89
2023-04-22T21:10:22.161Z,17.89
2023-04-22T21:15:26.490Z,17.96
2023-04-22T21:20:32.467Z,18.00
2023-04-22T21:25:37.496Z,17.93
2023-04-22T21:30:41.644Z,17.97
2023-04-22T21:35:45.136Z,18.05
2023-04-22T21:40:49.978Z,17.99
2023-04-22T21:45:53.498Z,17.98
2023-04-22T21:50:57.003Z,17.94
2023-04-22T21:56:01.973Z,17.97
2023-04-22T22:01:05.655Z,17.92
2023-04-22T22:06:09.304Z,17.97
2023-04-22T22:11:27.576Z,17.98
2023-04-22T22:16:34.467Z,17.95
2023-04-22T22:21:37.948Z,17.93
2023-04-22T22:26:43.424Z,17.94
2023-04-22T22:31:47.320Z,17.91
2023-04-22T22:36:50.900Z,17.95
2023-04-22T22:41:56.377Z,17.94
2023-04-22T22:46:59.961Z,17.91
2023-04-22T22:52:03.453Z,17.92
2023-04-22T22:57:08.586Z,17.91
2023-04-22T23:02:14.064Z,17.89
2023-04-22T23:07:17.899Z,17.89
2023-04-22T23:12:22.674Z,17.89
2023-04-22T23:17:26.193Z,17.89
2023-04-22T23:22:30.975Z,17.87
2023-04-22T23:27:36.152Z,17.89
2023-04-22T23:32:41.102Z,17.86
2023-04-22T23:37:46.155Z,17.88
2023-04-22T23:42:51.064Z,17.85
2023-04-22T23:47:54.493Z,17.84
2023-04-22T23:52:57.976Z,17.83
2023-04-22T23:58:03.353Z,17.86
